createdAt,value
2024-01-01T00:02:23.446Z,98949.38
2024-01-01T00:04:50.571Z,98957.81
2024-01-01T00:07:19.238Z,98949.56
2024-01-01T00:09:46.480Z,98947.94
2024-01-01T00:12:13.735Z,98966.09
2024-01-01T00:14:40.629Z,98952.88
2024-01-01T00:17:08.090Z,98953.69
2024-01-01T00:19:36.543Z,98951.84
2024-01-01T00:22:05.105Z,98956.38
2024-01-01T00:24:32.338Z,98958.41
2024-01-01T00:26:59.396Z,98953.47
2024-01-01T00:29:33.536Z,98949.13
2024-01-01T00:32:07.149Z,98964.03
2024-01-01T00:34:36.922Z,98955.16
2024-01-01T00:37:04.663Z,98959.06
2024-01-01T00:39:31.524Z,98955.72
2024-01-01T00:41:58.534Z,98955.94
2024-01-01T00:44:25.465Z,98950.78
2024-01-01T00:46:53.143Z,98955.72
2024-01-01T00:49:20.450Z,98959.63
2024-01-01T00:51:48.919Z,98948.09
2024-01-01T00:54:16.021Z,98954.50
2024-01-01T00:56:43.633Z,98956.56
2024-01-01T00:59:14.976Z,98950.16
2024-01-01T01:01:43.448Z,98948.72
2024-01-01T01:04:13.520Z,98945.63
2024-01-01T01:06:42.391Z,98953.47
2024-01-01T01:09:13.714Z,98961.31
2024-01-01T01:11:41.793Z,98959.47
2024-01-01T01:14:11.941Z,98959.03
2024-01-01T01:16:40.343Z,98961.31
2024-01-01T01:19:08.190Z,98960.28
2024-01-01T01:21:35.397Z,98954.47
2024-01-01T01:24:03.051Z,98965.25
2024-01-01T01:26:32.455Z,98968.53
2024-01-01T01:28:59.352Z,98970.00
2024-01-01T01:31:26.599Z,98971.84
2024-01-01T01:33:53.574Z,98972.69
2024-01-01T01:36:20.501Z,98972.25
2024-01-01T01:38:47.393Z,98977.44
2024-01-01T01:41:14.786Z,98977.44
2024-01-01T01:43:44.738Z,98978.06
2024-01-01T01:46:15.499Z,98979.69
2024-01-01T01:48:44.486Z,98971.25
2024-01-01T01:51:12.599Z,98970.81
2024-01-01T01:53:41.940Z,98980.94
2024-01-01T01:56:10.202Z,98970.22
2024-01-01T01:58:38.168Z,98970.41
2024-01-01T02:01:07.995Z,98971.44
2024-01-01T02:03:35.958Z,98972.69
2024-01-01T02:06:03.589Z,98971.44
2024-01-01T02:08:30.579Z,98972.25
2024-01-01T02:10:59.017Z,98972.69
2024-01-01T02:13:29.974Z,98972.47
2024-01-01T02:15:58.388Z,98971.22
2024-01-01T02:18:27.244Z,98962.56
2024-01-01T02:20:57.015Z,98965.47
2024-01-01T02:23:25.501Z,98968.31
2024-01-01T02:25:57.502Z,98969.78
2024-01-01T02:28:24.487Z,98964.41
2024-01-01T02:30:51.412Z,98968.53
2024-01-01T02:33:18.475Z,98961.09
2024-01-01T02:35:46.545Z,98963.41
2024-01-01T02:38:14.692Z,98964.63
2024-01-01T02:40:43.542Z,98966.72
2024-01-01T02:43:10.943Z,98967.53
2024-01-01T02:45:39.021Z,98967.53
2024-01-01T02:48:07.587Z,98976.41
2024-01-01T02:50:35.022Z,98976.63
2024-01-01T02:53:02.930Z,98980.53
2024-01-01T02:55:29.832Z,98980.94
2024-01-01T02:57:59.079Z,98982.16
2024-01-01T03:00:32.111Z,98981.53
2024-01-01T03:03:02.044Z,98988.78
2024-01-01T03:05:29.548Z,98979.06
2024-01-01T03:07:58.899Z,98985.06
2024-01-01T03:10:25.858Z,98985.06
2024-01-01T03:12:53.613Z,98985.06
2024-01-01T03:15:22.105Z,98983.81
2024-01-01T03:17:50.021Z,98984.22
2024-01-01T03:20:17.180Z,98985.69
2024-01-01T03:22:44.351Z,98987.13
2024-01-01T03:25:11.320Z,98983.41
2024-01-01T03:27:39.160Z,98976.19
2024-01-01T03:30:08.087Z,98979.88
2024-01-01T03:32:37.179Z,98979.50
2024-01-01T03:35:05.425Z,98978.66
2024-01-01T03:37:32.527Z,98987.34
2024-01-01T03:39:59.735Z,98995.34
2024-01-01T03:42:27.128Z,98993.09
2024-01-01T03:44:54.029Z,98986.88
2024-01-01T03:47:22.475Z,98989.19
2024-01-01T03:49:51.986Z,98988.72
2024-01-01T03:52:21.216Z,98994.72
2024-01-01T03:54:48.468Z,99003.81
2024-01-01T03:57:15.409Z,98994.53
2024-01-01T03:59:42.800Z,99007.50
2024-01-01T04:02:10.543Z,99001.53
2024-01-01T04:04:37.766Z,98996.38
2024-01-01T04:07:06.132Z,98999.22
2024-01-01T04:09:33.174Z,98992.47
2024-01-01T04:12:00.398Z,98998.59
2024-01-01T04:14:27.342Z,98992.97
2024-01-01T04:16:54.387Z,98991.16
2024-01-01T04:19:21.871Z,98991.28
2024-01-01T04:21:51.085Z,98981.97
2024-01-01T04:24:19.303Z,98980.75
2024-01-01T04:26:46.545Z,98988.25
2024-01-01T04:29:13.660Z,98986.41
2024-01-01T04:31:40.912Z,99004.44
2024-01-01T04:34:07.834Z,99006.28
2024-01-01T04:36:34.994Z,98996.81
2024-01-01T04:39:01.964Z,98999.94
2024-01-01T04:41:30.597Z,98989.59
2024-01-01T04:43:57.822Z,98984.41
2024-01-01T04:46:24.806Z,98991.63
2024-01-01T04:48:54.512Z,98983.00
2024-01-01T04:51:24.052Z,98981.75
2024-01-01T04:53:52.786Z,98986.72
2024-01-01T04:56:20.138Z,98987.97
2024-01-01T04:58:49.201Z,98985.47
2024-01-01T05:01:16.383Z,98990.44
2024-01-01T05:03:43.372Z,98994.38
2024-01-01T05:06:10.640Z,98993.31
2024-01-01T05:08:37.555Z,98996.84
2024-01-01T05:11:05.770Z,98995.81
2024-01-01T05:13:32.867Z,99004.06
2024-01-01T05:16:02.501Z,99008.81
2024-01-01T05:18:29.668Z,99004.91
2024-01-01T05:20:57.011Z,99012.75
2024-01-01T05:23:23.946Z,99011.50
2024-01-01T05:25:52.307Z,99009.84
2024-01-01T05:28:19.206Z,99019.16
2024-01-01T05:30:46.238Z,99011.09
2024-01-01T05:33:16.098Z,99015.63
2024-01-01T05:35:43.224Z,99015.84
2024-01-01T05:38:10.381Z,99010.66
2024-01-01T05:40:37.668Z,99022.44
2024-01-01T05:43:05.097Z,99022.22
2024-01-01T05:45:32.398Z,99025.50
2024-01-01T05:48:01.170Z,99025.53
2024-01-01T05:50:29.681Z,99026.97
2024-01-01T05:52:56.660Z,99030.03
2024-01-01T05:55:23.649Z,99027.16
2024-01-01T05:57:50.942Z,99027.16
2024-01-01T06:00:19.725Z,99035.78
2024-01-01T06:02:46.572Z,99028.38
2024-01-01T06:05:13.571Z,99039.53
2024-01-01T06:07:41.860Z,99047.38
2024-01-01T06:10:09.852Z,99042.44
2024-01-01T06:12:36.804Z,99053.13
2024-01-01T06:15:04.493Z,99057.09
2024-01-01T06:17:32.121Z,99059.34
2024-01-01T06:19:59.068Z,99058.50
2024-01-01T06:22:27.411Z,99062.88
2024-01-01T06:24:55.742Z,99050.03
2024-01-01T06:27:22.891Z,99050.28
2024-01-01T06:29:50.189Z,99048.59
2024-01-01T06:32:19.095Z,99052.56
2024-01-01T06:34:46.117Z,99058.97
2024-01-01T06:37:13.815Z,99058.72
2024-01-01T06:39:41.710Z,99064.72
2024-01-01T06:42:10.181Z,99061.84
2024-01-01T06:44:39.040Z,99064.72
2024-01-01T06:47:06.356Z,99067.22
2024-01-01T06:49:33.484Z,99078.78
2024-01-01T06:52:00.331Z,99066.63
2024-01-01T06:54:27.218Z,99075.69
2024-01-01T06:56:54.191Z,99076.13
2024-01-01T06:59:28.111Z,99078.38
2024-01-01T07:01:55.157Z,99094.97
2024-01-01T07:04:22.008Z,99090.81
2024-01-01T07:06:48.948Z,99093.69
2024-01-01T07:09:17.313Z,99102.00
2024-01-01T07:11:46.681Z,99110.91
2024-01-01T07:14:15.386Z,99113.97
2024-01-01T07:16:44.851Z,99121.44
2024-01-01T07:19:11.855Z,99122.44
2024-01-01T07:21:38.931Z,99128.03
2024-01-01T07:24:06.788Z,99133.00
2024-01-01T07:26:33.690Z,99125.16
2024-01-01T07:29:00.600Z,99130.31
2024-01-01T07:31:30.398Z,99137.13
2024-01-01T07:33:58.713Z,99139.81
2024-01-01T07:36:25.595Z,99141.28
2024-01-01T07:38:52.872Z,99141.88
2024-01-01T07:41:19.811Z,99146.22
2024-01-01T07:43:46.744Z,99143.72
2024-01-01T07:46:13.659Z,99140.81
2024-01-01T07:48:40.692Z,99143.94
2024-01-01T07:51:10.361Z,99140.22
2024-01-01T07:53:37.256Z,99144.97
2024-01-01T07:56:05.532Z,99142.25
2024-01-01T07:58:32.453Z,99141.88
2024-01-01T08:00:59.683Z,99130.50
2024-01-01T08:03:26.631Z,99136.09
2024-01-01T08:05:53.913Z,99127.19
2024-01-01T08:08:24.315Z,99135.84
2024-01-01T08:10:53.074Z,99127.41
2024-01-01T08:13:20.273Z,99147.84
2024-01-01T08:15:47.152Z,99148.25
2024-01-01T08:18:16.144Z,99154.91
2024-01-01T08:20:43.254Z,99160.66
2024-01-01T08:23:10.373Z,99158.81
2024-01-01T08:25:39.878Z,99159.56
2024-01-01T08:28:07.792Z,99167.78
2024-01-01T08:30:34.816Z,99160.38
2024-01-01T08:33:01.957Z,99168.06
2024-01-01T08:35:29.525Z,99171.47
2024-01-01T08:37:56.533Z,99170.50
2024-01-01T08:40:25.949Z,99171.88
2024-01-01T08:42:56.802Z,99183.22
2024-01-01T08:45:25.205Z,99191.28
2024-01-01T08:47:53.011Z,99187.09
2024-01-01T08:50:20.210Z,99188.94
2024-01-01T08:52:47.294Z,99199.25
2024-01-01T08:55:14.992Z,99190.59
2024-01-01T08:57:41.834Z,99197.16
2024-01-01T09:00:12.053Z,99197.63
2024-01-01T09:02:39.303Z,99217.47
2024-01-01T09:05:07.734Z,99207.53
2024-01-01T09:07:34.673Z,99207.09
2024-01-01T09:10:03.935Z,99202.63
2024-01-01T09:12:30.885Z,99190.19
2024-01-01T09:14:58.178Z,99188.97
2024-01-01T09:17:26.792Z,99192.38
2024-01-01T09:19:53.860Z,99192.56
2024-01-01T09:22:20.781Z,99185.38
2024-01-01T09:24:47.702Z,99190.84
2024-01-01T09:27:14.656Z,99188.16
2024-01-01T09:29:41.587Z,99196.38
2024-01-01T09:32:08.756Z,99184.66
2024-01-01T09:34:38.124Z,99200.47
2024-01-01T09:37:05.099Z,99192.06
2024-01-01T09:39:32.085Z,99217.41
2024-01-01T09:42:05.645Z,99207.91
2024-01-01T09:44:32.721Z,99208.56
2024-01-01T09:47:02.715Z,99208.78
2024-01-01T09:49:29.643Z,99217.91
2024-01-01T09:51:58.011Z,99224.59
2024-01-01T09:54:25.563Z,99215.34
2024-01-01T09:56:52.522Z,99220.41
2024-01-01T09:59:35.600Z,99221.31
2024-01-01T10:02:04.523Z,99245.97
2024-01-01T10:04:31.572Z,99237.88
2024-01-01T10:07:03.096Z,99242.91
2024-01-01T10:09:31.018Z,99259.50
2024-01-01T10:12:08.284Z,99278.72
2024-01-01T10:14:47.492Z,99277.53
2024-01-01T10:17:16.818Z,99274.53
2024-01-01T10:19:48.146Z,99310.34
2024-01-01T10:22:17.043Z,99323.84
2024-01-01T10:24:44.003Z,99358.81
2024-01-01T10:27:14.649Z,99379.50
2024-01-01T10:29:43.418Z,99360.94
2024-01-01T10:32:13.472Z,99386.84
2024-01-01T10:34:43.086Z,99362.63
2024-01-01T10:37:10.053Z,99324.59
2024-01-01T10:39:41.090Z,99307.34
2024-01-01T10:42:08.939Z,99290.63
2024-01-01T10:44:36.080Z,99282.25
2024-01-01T10:47:08.354Z,99273.63
2024-01-01T10:49:38.008Z,99243.03
2024-01-01T10:52:44.656Z,99236.66
2024-01-01T10:55:54.643Z,99256.22
2024-01-01T10:58:45.028Z,99244.78
2024-01-01T11:01:18.981Z,99265.28
2024-01-01T11:03:47.173Z,99256.56
2024-01-01T11:06:25.537Z,99253.69
2024-01-01T11:08:54.029Z,99240.56
2024-01-01T11:11:28.168Z,99245.88
2024-01-01T11:13:56.330Z,99256.31
2024-01-01T11:16:24.579Z,99261.19
2024-01-01T11:18:52.939Z,99273.03
2024-01-01T11:21:32.106Z,99274.25
2024-01-01T11:24:19.837Z,99279.91
2024-01-01T11:26:47.965Z,99279.97
2024-01-01T11:29:30.255Z,99303.69
2024-01-01T11:32:04.153Z,99324.84
2024-01-01T11:34:37.740Z,99317.03
2024-01-01T11:37:07.609Z,99307.56
2024-01-01T11:39:35.022Z,99292.47
2024-01-01T11:42:03.621Z,99309.25
2024-01-01T11:44:30.690Z,99328.31
2024-01-01T11:46:57.737Z,99319.13
2024-01-01T11:49:25.308Z,99319.22
2024-01-01T11:51:55.795Z,99330.22
2024-01-01T11:54:23.026Z,99361.63
2024-01-01T11:56:53.353Z,99363.38
2024-01-01T11:59:21.816Z,99383.31
2024-01-01T12:01:48.956Z,99380.28
2024-01-01T12:04:17.813Z,99360.44
2024-01-01T12:06:50.830Z,99344.09
2024-01-01T12:09:18.650Z,99355.81
2024-01-01T12:11:45.646Z,99322.03
2024-01-01T12:14:13.507Z,99293.00
2024-01-01T12:16:43.022Z,99278.09
2024-01-01T12:19:10.066Z,99274.28
2024-01-01T12:21:42.344Z,99269.97
2024-01-01T12:24:14.146Z,99257.03
2024-01-01T12:26:42.124Z,99232.63
2024-01-01T12:29:14.560Z,99231.16
2024-01-01T12:31:44.500Z,99240.66
2024-01-01T12:34:16.062Z,99223.13
2024-01-01T12:36:44.393Z,99235.63
2024-01-01T12:39:11.579Z,99224.66
2024-01-01T12:41:39.299Z,99221.59
2024-01-01T12:44:06.497Z,99232.50
2024-01-01T12:46:33.470Z,99246.06
2024-01-01T12:49:02.151Z,99238.16
2024-01-01T12:51:30.156Z,99233.59
2024-01-01T12:53:59.081Z,99225.81
2024-01-01T12:56:27.598Z,99217.00
2024-01-01T12:58:55.201Z,99210.66
2024-01-01T13:01:23.760Z,99218.41
2024-01-01T13:03:50.946Z,99215.13
2024-01-01T13:06:20.691Z,99230.69
2024-01-01T13:08:49.663Z,99219.47
2024-01-01T13:11:17.604Z,99215.34
2024-01-01T13:13:44.645Z,99212.53
2024-01-01T13:16:11.628Z,99217.84
2024-01-01T13:18:38.762Z,99223.97
2024-01-01T13:21:06.170Z,99219.16
2024-01-01T13:23:36.181Z,99213.84
2024-01-01T13:26:03.167Z,99220.31
2024-01-01T13:28:30.299Z,99218.03
2024-01-01T13:30:57.195Z,99217.75
2024-01-01T13:33:24.278Z,99211.59
2024-01-01T13:35:51.186Z,99216.38
2024-01-01T13:38:18.427Z,99215.09
2024-01-01T13:40:48.873Z,99218.22
2024-01-01T13:43:15.876Z,99214.06
2024-01-01T13:45:46.404Z,99220.63
2024-01-01T13:48:14.407Z,99225.69
2024-01-01T13:50:42.754Z,99229.84
2024-01-01T13:53:17.241Z,99232.56
2024-01-01T13:55:45.794Z,99245.25
2024-01-01T13:58:15.093Z,99228.09
2024-01-01T14:00:42.399Z,99212.53
2024-01-01T14:03:09.684Z,99230.91
2024-01-01T14:05:37.319Z,99223.28
2024-01-01T14:08:06.517Z,99238.31
2024-01-01T14:10:33.524Z,99228.03
2024-01-01T14:13:01.802Z,99223.44
2024-01-01T14:15:30.000Z,99221.66
2024-01-01T14:17:57.014Z,99213.13
2024-01-01T14:20:26.117Z,99223.59
2024-01-01T14:22:53.902Z,99226.69
2024-01-01T14:25:23.061Z,99233.06
2024-01-01T14:27:50.184Z,99228.16
2024-01-01T14:30:18.681Z,99237.44
2024-01-01T14:32:46.173Z,99235.88
2024-01-01T14:35:15.059Z,99238.47
2024-01-01T14:37:44.508Z,99243.75
2024-01-01T14:40:13.213Z,99255.44
2024-01-01T14:42:43.074Z,99251.06
2024-01-01T14:45:11.684Z,99249.44
2024-01-01T14:47:40.334Z,99256.25
2024-01-01T14:50:10.036Z,99250.56
2024-01-01T14:52:37.301Z,99259.28
2024-01-01T14:55:05.084Z,99251.53
2024-01-01T14:57:32.116Z,99265.78
2024-01-01T14:59:59.138Z,99257.97
2024-01-01T15:02:26.077Z,99266.31
2024-01-01T15:04:54.953Z,99258.31
2024-01-01T15:07:22.916Z,99268.94
2024-01-01T15:09:50.340Z,99269.91
2024-01-01T15:12:18.620Z,99265.38
2024-01-01T15:14:45.873Z,99272.47
2024-01-01T15:17:13.856Z,99279.50
2024-01-01T15:19:40.877Z,99289.84
2024-01-01T15:22:09.406Z,99281.88
2024-01-01T15:24:37.475Z,99288.69
2024-01-01T15:27:04.920Z,99295.75
2024-01-01T15:29:34.336Z,99297.34
2024-01-01T15:32:01.662Z,99305.97
2024-01-01T15:34:28.604Z,99320.03
2024-01-01T15:36:56.185Z,99310.63
2024-01-01T15:39:24.442Z,99312.06
2024-01-01T15:41:51.587Z,99309.69
2024-01-01T15:44:19.395Z,99309.28
2024-01-01T15:46:47.313Z,99315.50
2024-01-01T15:49:14.406Z,99317.91
2024-01-01T15:51:41.842Z,99321.22
2024-01-01T15:54:09.138Z,99317.03
2024-01-01T15:56:42.274Z,99316.91
2024-01-01T15:59:11.966Z,99315.50
2024-01-01T16:01:38.917Z,99324.66
2024-01-01T16:04:10.538Z,99315.97
2024-01-01T16:06:38.933Z,99316.81
2024-01-01T16:09:05.799Z,99326.94
2024-01-01T16:11:33.100Z,99329.00
2024-01-01T16:14:01.414Z,99338.50
2024-01-01T16:16:29.673Z,99338.69
2024-01-01T16:21:24.128Z,99348.44
2024-01-01T16:23:51.321Z,99344.91
2024-01-01T16:26:18.745Z,99354.47
2024-01-01T16:28:45.800Z,99355.13
2024-01-01T16:31:20.569Z,99367.22
2024-01-01T16:33:48.031Z,99367.38
2024-01-01T16:36:17.742Z,99364.50
2024-01-01T16:38:47.238Z,99366.78
2024-01-01T16:41:14.434Z,99356.19
2024-01-01T16:43:42.282Z,99363.75
2024-01-01T16:46:09.848Z,99361.91
2024-01-01T16:48:42.286Z,99359.63
2024-01-01T16:51:09.373Z,99351.53
2024-01-01T16:53:38.256Z,99350.94
2024-01-01T16:56:09.369Z,99347.25
2024-01-01T16:58:36.732Z,99352.31
2024-01-01T17:01:04.160Z,99350.81
2024-01-01T17:03:31.429Z,99354.59
2024-01-01T17:06:01.374Z,99355.88
2024-01-01T17:08:28.933Z,99358.63
2024-01-01T17:10:56.040Z,99365.03
2024-01-01T17:13:23.994Z,99366.06
2024-01-01T17:15:51.388Z,99366.13
2024-01-01T17:18:20.811Z,99358.09
2024-01-01T17:20:50.776Z,99367.59
2024-01-01T17:23:19.516Z,99362.03
2024-01-01T17:25:50.273Z,99377.13
2024-01-01T17:28:24.659Z,99377.09
2024-01-01T17:30:52.078Z,99368.38
2024-01-01T17:33:28.765Z,99371.13
2024-01-01T17:35:55.717Z,99385.88
2024-01-01T17:38:24.216Z,99380.09
2024-01-01T17:40:51.707Z,99381.59
2024-01-01T17:43:18.752Z,99386.13
2024-01-01T17:45:46.002Z,99382.84
2024-01-01T17:48:13.244Z,99381.78
2024-01-01T17:50:41.760Z,99387.63
2024-01-01T17:53:09.033Z,99389.25
2024-01-01T17:55:40.394Z,99383.28
2024-01-01T17:58:07.716Z,99388.25
2024-01-01T18:00:34.993Z,99388.69
2024-01-01T18:03:02.241Z,99394.91
2024-01-01T18:05:29.208Z,99397.38
2024-01-01T18:07:56.405Z,99393.22
2024-01-01T18:10:23.657Z,99390.13
2024-01-01T18:12:52.033Z,99394.91
2024-01-01T18:15:19.002Z,99392.00
2024-01-01T18:17:46.257Z,99395.31
2024-01-01T18:20:13.599Z,99397.59
2024-01-01T18:22:40.642Z,99390.34
2024-01-01T18:25:10.712Z,99396.16
2024-01-01T18:27:39.316Z,99392.84
2024-01-01T18:30:09.829Z,99390.75
2024-01-01T18:32:36.941Z,99387.84
2024-01-01T18:35:05.669Z,99393.88
2024-01-01T18:37:32.651Z,99384.94
2024-01-01T18:39:59.664Z,99393.66
2024-01-01T18:42:26.587Z,99387.03
2024-01-01T18:44:53.555Z,99392.63
2024-01-01T18:47:22.098Z,99384.94
2024-01-01T18:49:52.613Z,99378.75
2024-01-01T18:52:19.821Z,99388.25
2024-01-01T18:54:47.068Z,99384.56
2024-01-01T18:57:15.270Z,99386.00
2024-01-01T18:59:42.242Z,99393.66
2024-01-01T19:02:09.851Z,99381.88
2024-01-01T19:04:38.790Z,99384.94
2024-01-01T19:07:05.851Z,99384.97
2024-01-01T19:09:32.842Z,99388.47
2024-01-01T19:12:00.623Z,99393.66
2024-01-01T19:14:27.572Z,99392.22
2024-01-01T19:16:54.520Z,99386.00
2024-01-01T19:19:21.504Z,99392.38
2024-01-01T19:21:49.865Z,99387.25
2024-01-01T19:24:17.191Z,99376.88
2024-01-01T19:26:45.333Z,99391.19
2024-01-01T19:29:12.518Z,99391.78
2024-01-01T19:31:40.214Z,99392.38
2024-01-01T19:34:08.458Z,99389.88
2024-01-01T19:36:42.853Z,99390.91
2024-01-01T19:39:11.281Z,99390.09
2024-01-01T19:41:45.059Z,99379.53
2024-01-01T19:44:14.248Z,99391.53
2024-01-01T19:46:43.053Z,99378.28
2024-01-01T19:49:10.281Z,99372.91
2024-01-01T19:51:40.086Z,99373.53
2024-01-01T19:54:07.179Z,99377.66
2024-01-01T19:56:36.113Z,99371.66
2024-01-01T19:59:03.788Z,99369.41
2024-01-01T20:01:33.914Z,99380.34
2024-01-01T20:04:01.036Z,99369.00
2024-01-01T20:06:27.895Z,99367.31
2024-01-01T20:08:54.890Z,99372.72
2024-01-01T20:11:25.299Z,99371.25
2024-01-01T20:13:54.101Z,99355.09
2024-01-01T20:16:25.842Z,99352.66
2024-01-01T20:18:55.540Z,99351.03
2024-01-01T20:21:24.647Z,99348.72
2024-01-01T20:23:52.868Z,99340.41
2024-01-01T20:26:22.294Z,99348.72
2024-01-01T20:28:50.778Z,99350.75
2024-01-01T20:31:22.794Z,99347.88
2024-01-01T20:33:50.439Z,99342.47
2024-01-01T20:36:17.545Z,99330.69
2024-01-01T20:38:45.691Z,99336.09
2024-01-01T20:41:15.367Z,99334.00
2024-01-01T20:43:42.282Z,99334.84
2024-01-01T20:46:09.528Z,99316.63
2024-01-01T20:48:39.325Z,99312.88
2024-01-01T20:51:06.791Z,99319.94
2024-01-01T20:53:34.133Z,99310.84
2024-01-01T20:56:01.416Z,99317.25
2024-01-01T20:58:29.885Z,99303.59
2024-01-01T21:00:57.276Z,99292.63
2024-01-01T21:03:24.647Z,99290.13
2024-01-01T21:05:53.198Z,99283.94
2024-01-01T21:08:20.081Z,99273.41
2024-01-01T21:10:47.004Z,99275.44
2024-01-01T21:13:14.957Z,99275.88
2024-01-01T21:15:41.835Z,99267.81
2024-01-01T21:18:08.866Z,99279.38
2024-01-01T21:20:35.790Z,99274.84
2024-01-01T21:23:04.471Z,99271.53
2024-01-01T21:25:32.387Z,99262.00
2024-01-01T21:27:59.374Z,99253.31
2024-01-01T21:30:26.432Z,99243.63
2024-01-01T21:32:53.390Z,99250.22
2024-01-01T21:35:21.355Z,99239.06
2024-01-01T21:37:48.401Z,99245.03
2024-01-01T21:40:17.397Z,99241.94
2024-01-01T21:42:45.213Z,99247.13
2024-01-01T21:45:12.389Z,99250.41
2024-01-01T21:47:39.771Z,99238.44
2024-01-01T21:50:08.368Z,99255.78
2024-01-01T21:52:36.728Z,99252.28
2024-01-01T21:55:04.051Z,99253.72
2024-01-01T21:57:33.153Z,99248.38
2024-01-01T22:00:00.396Z,99244.63
2024-01-01T22:02:27.476Z,99251.88
2024-01-01T22:04:55.758Z,99252.47
2024-01-01T22:07:22.789Z,99249.38
2024-01-01T22:09:50.225Z,99246.72
2024-01-01T22:12:17.103Z,99241.31
2024-01-01T22:14:47.146Z,99236.56
2024-01-01T22:17:16.123Z,99240.31
2024-01-01T22:19:43.234Z,99233.47
2024-01-01T22:22:11.620Z,99225.59
2024-01-01T22:24:38.527Z,99239.88
2024-01-01T22:27:05.620Z,99226.84
2024-01-01T22:29:32.866Z,99228.47
2024-01-01T22:32:02.043Z,99226.00
2024-01-01T22:34:29.501Z,99226.81
2024-01-01T22:36:56.538Z,99233.03
2024-01-01T22:39:23.846Z,99216.88
2024-01-01T22:41:51.131Z,99223.91
2024-01-01T22:44:18.625Z,99219.31
2024-01-01T22:46:46.198Z,99223.06
2024-01-01T22:49:16.445Z,99218.09
2024-01-01T22:51:43.437Z,99214.94
2024-01-01T22:54:10.614Z,99202.31
2024-01-01T22:56:39.772Z,99204.72
2024-01-01T22:59:06.775Z,99205.16
2024-01-01T23:01:35.568Z,99199.41
2024-01-01T23:04:03.926Z,99198.56
2024-01-01T23:06:32.329Z,99199.78
2024-01-01T23:09:00.375Z,99202.03
2024-01-01T23:11:27.611Z,99189.84
2024-01-01T23:13:54.949Z,99187.06
2024-01-01T23:16:22.342Z,99180.56
2024-01-01T23:18:49.220Z,99184.53
2024-01-01T23:21:16.178Z,99177.47
2024-01-01T23:23:45.908Z,99186.81
2024-01-01T23:26:14.294Z,99178.28
2024-01-01T23:28:41.475Z,99181.00
2024-01-01T23:31:08.655Z,99180.78
2024-01-01T23:33:35.629Z,99170.00
2024-01-01T23:36:02.916Z,99167.53
2024-01-01T23:38:29.906Z,99167.97
2024-01-01T23:40:59.991Z,99167.13
2024-01-01T23:43:26.937Z,99172.06
2024-01-01T23:45:54.193Z,99163.38
2024-01-01T23:48:24.415Z,99155.50
2024-01-01T23:50:52.438Z,99149.50
2024-01-01T23:53:19.293Z,99149.91
2024-01-01T23:55:47.012Z,99139.91
2024-01-01T23:58:16.532Z,99139.56
